sensor_id;sensor_type;location;lat;lon;timestamp;temperature;humidity
23301;DHT22;11819;51.394;12.340;2023-09-08T00:00:11;20.50;84.60
23301;DHT22;11819;51.394;12.340;2023-09-08T00:02:37;20.50;84.70
23301;DHT22;11819;51.394;12.340;2023-09-08T00:05:02;20.50;84.80
23301;DHT22;11819;51.394;12.340;2023-09-08T00:07:28;20.50;84.90
23301;DHT22;11819;51.394;12.340;2023-09-08T00:09:54;20.50;85.00
23301;DHT22;11819;51.394;12.340;2023-09-08T00:12:19;20.40;85.10
23301;DHT22;11819;51.394;12.340;2023-09-08T00:14:45;20.40;85.20
23301;DHT22;11819;51.394;12.340;2023-09-08T00:17:11;20.40;86.10
23301;DHT22;11819;51.394;12.340;2023-09-08T00:19:37;20.40;85.30
23301;DHT22;11819;51.394;12.340;2023-09-08T00:22:04;20.30;85.20
23301;DHT22;11819;51.394;12.340;2023-09-08T00:24:31;20.30;85.30
23301;DHT22;11819;51.394;12.340;2023-09-08T00:26:57;20.30;85.40
23301;DHT22;11819;51.394;12.340;2023-09-08T00:29:22;20.20;85.30
23301;DHT22;11819;51.394;12.340;2023-09-08T00:31:48;20.20;85.40
23301;DHT22;11819;51.394;12.340;2023-09-08T00:34:13;20.10;85.50
23301;DHT22;11819;51.394;12.340;2023-09-08T00:36:39;20.10;85.60
23301;DHT22;11819;51.394;12.340;2023-09-08T00:39:04;20.10;85.80
23301;DHT22;11819;51.394;12.340;2023-09-08T00:41:30;20.00;85.90
23301;DHT22;11819;51.394;12.340;2023-09-08T00:43:56;20.00;86.00
23301;DHT22;11819;51.394;12.340;2023-09-08T00:46:23;20.00;86.10
23301;DHT22;11819;51.394;12.340;2023-09-08T00:48:49;20.00;86.30
23301;DHT22;11819;51.394;12.340;2023-09-08T00:51:14;20.00;86.30
23301;DHT22;11819;51.394;12.340;2023-09-08T00:53:41;20.00;86.40
23301;DHT22;11819;51.394;12.340;2023-09-08T00:56:09;19.90;86.30
23301;DHT22;11819;51.394;12.340;2023-09-08T00:58:34;19.90;86.40
23301;DHT22;11819;51.394;12.340;2023-09-08T01:01:00;19.90;86.50
23301;DHT22;11819;51.394;12.340;2023-09-08T01:03:26;19.80;86.50
23301;DHT22;11819;51.394;12.340;2023-09-08T01:05:52;19.80;86.60
23301;DHT22;11819;51.394;12.340;2023-09-08T01:08:18;19.80;86.70
23301;DHT22;11819;51.394;12.340;2023-09-08T01:10:45;19.80;86.90
23301;DHT22;11819;51.394;12.340;2023-09-08T01:13:11;19.80;87.10
23301;DHT22;11819;51.394;12.340;2023-09-08T01:15:37;19.80;87.20
23301;DHT22;11819;51.394;12.340;2023-09-08T01:18:02;19.80;87.30
23301;DHT22;11819;51.394;12.340;2023-09-08T01:23:21;19.70;87.50
23301;DHT22;11819;51.394;12.340;2023-09-08T01:26:04;19.70;87.70
23301;DHT22;11819;51.394;12.340;2023-09-08T01:28:33;19.70;87.70
23301;DHT22;11819;51.394;12.340;2023-09-08T01:30:59;19.70;87.80
23301;DHT22;11819;51.394;12.340;2023-09-08T01:33:26;19.70;87.80
23301;DHT22;11819;51.394;12.340;2023-09-08T01:35:52;19.70;88.00
23301;DHT22;11819;51.394;12.340;2023-09-08T01:38:20;19.70;88.20
23301;DHT22;11819;51.394;12.340;2023-09-08T01:40:46;19.70;88.20
23301;DHT22;11819;51.394;12.340;2023-09-08T01:43:11;19.60;88.20
23301;DHT22;11819;51.394;12.340;2023-09-08T01:45:37;19.60;88.30
23301;DHT22;11819;51.394;12.340;2023-09-08T01:48:03;19.60;88.30
23301;DHT22;11819;51.394;12.340;2023-09-08T01:50:29;19.60;88.40
23301;DHT22;11819;51.394;12.340;2023-09-08T01:52:55;19.60;88.60
23301;DHT22;11819;51.394;12.340;2023-09-08T01:55:21;19.50;88.60
23301;DHT22;11819;51.394;12.340;2023-09-08T01:57:47;19.50;88.60
23301;DHT22;11819;51.394;12.340;2023-09-08T02:00:14;19.50;88.70
23301;DHT22;11819;51.394;12.340;2023-09-08T02:02:40;19.50;88.70
23301;DHT22;11819;51.394;12.340;2023-09-08T02:05:07;19.50;88.80
23301;DHT22;11819;51.394;12.340;2023-09-08T02:07:33;19.50;88.80
23301;DHT22;11819;51.394;12.340;2023-09-08T02:09:59;19.50;88.90
23301;DHT22;11819;51.394;12.340;2023-09-08T02:12:24;19.40;88.80
23301;DHT22;11819;51.394;12.340;2023-09-08T02:14:50;19.40;88.90
23301;DHT22;11819;51.394;12.340;2023-09-08T02:17:17;19.40;88.90
23301;DHT22;11819;51.394;12.340;2023-09-08T02:19:44;19.40;89.00
23301;DHT22;11819;51.394;12.340;2023-09-08T02:22:09;19.40;89.10
23301;DHT22;11819;51.394;12.340;2023-09-08T02:24:35;19.30;89.00
23301;DHT22;11819;51.394;12.340;2023-09-08T02:27:01;19.30;89.20
23301;DHT22;11819;51.394;12.340;2023-09-08T02:29:26;19.30;89.30
23301;DHT22;11819;51.394;12.340;2023-09-08T02:31:52;19.30;89.20
23301;DHT22;11819;51.394;12.340;2023-09-08T02:34:18;19.30;89.30
23301;DHT22;11819;51.394;12.340;2023-09-08T02:36:43;19.30;89.30
23301;DHT22;11819;51.394;12.340;2023-09-08T02:39:10;19.20;89.20
23301;DHT22;11819;51.394;12.340;2023-09-08T02:41:36;19.20;89.40
23301;DHT22;11819;51.394;12.340;2023-09-08T02:44:02;19.20;89.10
23301;DHT22;11819;51.394;12.340;2023-09-08T02:46:27;19.20;89.20
23301;DHT22;11819;51.394;12.340;2023-09-08T02:48:54;19.20;89.20
23301;DHT22;11819;51.394;12.340;2023-09-08T02:51:19;19.10;89.00
23301;DHT22;11819;51.394;12.340;2023-09-08T02:53:46;19.10;89.20
23301;DHT22;11819;51.394;12.340;2023-09-08T02:56:11;19.10;89.40
23301;DHT22;11819;51.394;12.340;2023-09-08T02:58:37;19.10;89.40
23301;DHT22;11819;51.394;12.340;2023-09-08T03:01:13;19.00;89.50
23301;DHT22;11819;51.394;12.340;2023-09-08T03:03:40;19.00;89.80
23301;DHT22;11819;51.394;12.340;2023-09-08T03:06:06;18.90;89.90
23301;DHT22;11819;51.394;12.340;2023-09-08T03:08:32;18.90;90.00
23301;DHT22;11819;51.394;12.340;2023-09-08T03:10:59;18.90;90.00
23301;DHT22;11819;51.394;12.340;2023-09-08T03:13:25;18.90;90.00
23301;DHT22;11819;51.394;12.340;2023-09-08T03:15:52;18.90;90.00
23301;DHT22;11819;51.394;12.340;2023-09-08T03:18:18;18.90;90.00
23301;DHT22;11819;51.394;12.340;2023-09-08T03:20:47;18.90;90.00
23301;DHT22;11819;51.394;12.340;2023-09-08T03:23:13;18.80;90.00
23301;DHT22;11819;51.394;12.340;2023-09-08T03:25:39;18.80;90.00
23301;DHT22;11819;51.394;12.340;2023-09-08T03:28:05;18.70;90.00
23301;DHT22;11819;51.394;12.340;2023-09-08T03:30:31;18.70;90.00
23301;DHT22;11819;51.394;12.340;2023-09-08T03:32:56;18.70;90.10
23301;DHT22;11819;51.394;12.340;2023-09-08T03:35:22;18.60;90.10
23301;DHT22;11819;51.394;12.340;2023-09-08T03:37:48;18.70;90.50
23301;DHT22;11819;51.394;12.340;2023-09-08T03:40:14;18.60;90.10
23301;DHT22;11819;51.394;12.340;2023-09-08T03:42:39;18.60;90.10
23301;DHT22;11819;51.394;12.340;2023-09-08T03:45:08;18.60;90.10
23301;DHT22;11819;51.394;12.340;2023-09-08T03:47:34;18.50;90.10
23301;DHT22;11819;51.394;12.340;2023-09-08T03:50:00;18.50;90.20
23301;DHT22;11819;51.394;12.340;2023-09-08T03:52:25;18.50;90.20
23301;DHT22;11819;51.394;12.340;2023-09-08T03:54:51;18.50;90.30
23301;DHT22;11819;51.394;12.340;2023-09-08T03:57:17;18.50;90.30
23301;DHT22;11819;51.394;12.340;2023-09-08T03:59:43;18.50;90.30
23301;DHT22;11819;51.394;12.340;2023-09-08T04:02:09;18.50;90.30
23301;DHT22;11819;51.394;12.340;2023-09-08T04:04:35;18.40;90.30
23301;DHT22;11819;51.394;12.340;2023-09-08T04:07:00;18.40;90.30
23301;DHT22;11819;51.394;12.340;2023-09-08T04:09:26;18.40;90.30
23301;DHT22;11819;51.394;12.340;2023-09-08T04:11:54;18.40;90.20
23301;DHT22;11819;51.394;12.340;2023-09-08T04:14:21;18.40;90.20
23301;DHT22;11819;51.394;12.340;2023-09-08T04:16:49;18.30;90.20
23301;DHT22;11819;51.394;12.340;2023-09-08T04:19:14;18.30;90.20
23301;DHT22;11819;51.394;12.340;2023-09-08T04:21:41;18.30;90.20
23301;DHT22;11819;51.394;12.340;2023-09-08T04:24:08;18.30;90.20
23301;DHT22;11819;51.394;12.340;2023-09-08T04:26:36;18.20;90.10
23301;DHT22;11819;51.394;12.340;2023-09-08T04:29:02;18.20;90.10
23301;DHT22;11819;51.394;12.340;2023-09-08T04:31:28;18.20;90.20
23301;DHT22;11819;51.394;12.340;2023-09-08T04:33:54;18.10;90.20
23301;DHT22;11819;51.394;12.340;2023-09-08T04:36:20;18.10;90.30
23301;DHT22;11819;51.394;12.340;2023-09-08T04:38:45;18.10;90.40
23301;DHT22;11819;51.394;12.340;2023-09-08T04:41:11;18.10;90.40
23301;DHT22;11819;51.394;12.340;2023-09-08T04:43:37;18.10;90.40
23301;DHT22;11819;51.394;12.340;2023-09-08T04:46:03;18.10;90.40
23301;DHT22;11819;51.394;12.340;2023-09-08T04:48:30;18.10;90.40
23301;DHT22;11819;51.394;12.340;2023-09-08T04:50:57;18.10;90.30
23301;DHT22;11819;51.394;12.340;2023-09-08T04:53:23;18.10;90.30
23301;DHT22;11819;51.394;12.340;2023-09-08T04:55:49;18.10;90.40
23301;DHT22;11819;51.394;12.340;2023-09-08T04:58:14;18.00;90.40
23301;DHT22;11819;51.394;12.340;2023-09-08T05:00:41;18.00;90.40
23301;DHT22;11819;51.394;12.340;2023-09-08T05:03:07;18.00;90.40
23301;DHT22;11819;51.394;12.340;2023-09-08T05:05:33;18.00;90.40
23301;DHT22;11819;51.394;12.340;2023-09-08T05:07:58;18.00;90.40
23301;DHT22;11819;51.394;12.340;2023-09-08T05:10:25;18.00;90.50
23301;DHT22;11819;51.394;12.340;2023-09-08T05:12:51;18.00;90.50
23301;DHT22;11819;51.394;12.340;2023-09-08T05:15:17;18.10;90.60
23301;DHT22;11819;51.394;12.340;2023-09-08T05:17:49;18.00;90.50
23301;DHT22;11819;51.394;12.340;2023-09-08T05:20:16;18.00;90.40
23301;DHT22;11819;51.394;12.340;2023-09-08T05:22:42;18.00;90.40
23301;DHT22;11819;51.394;12.340;2023-09-08T05:25:08;18.00;90.50
23301;DHT22;11819;51.394;12.340;2023-09-08T05:27:34;18.00;90.70
23301;DHT22;11819;51.394;12.340;2023-09-08T05:30:00;18.00;90.80
23301;DHT22;11819;51.394;12.340;2023-09-08T05:32:26;18.00;90.80
23301;DHT22;11819;51.394;12.340;2023-09-08T05:34:51;18.00;90.90
23301;DHT22;11819;51.394;12.340;2023-09-08T05:37:17;18.00;90.90
23301;DHT22;11819;51.394;12.340;2023-09-08T05:39:43;18.00;91.00
23301;DHT22;11819;51.394;12.340;2023-09-08T05:42:09;18.10;91.10
23301;DHT22;11819;51.394;12.340;2023-09-08T05:44:34;18.10;91.10
23301;DHT22;11819;51.394;12.340;2023-09-08T05:47:01;18.10;91.20
23301;DHT22;11819;51.394;12.340;2023-09-08T05:49:27;18.10;91.20
23301;DHT22;11819;51.394;12.340;2023-09-08T05:51:53;18.20;91.30
23301;DHT22;11819;51.394;12.340;2023-09-08T05:54:19;18.20;91.30
23301;DHT22;11819;51.394;12.340;2023-09-08T05:56:44;18.20;91.40
23301;DHT22;11819;51.394;12.340;2023-09-08T05:59:10;18.30;91.40
23301;DHT22;11819;51.394;12.340;2023-09-08T06:01:37;18.30;91.40
23301;DHT22;11819;51.394;12.340;2023-09-08T06:04:06;18.40;91.60
23301;DHT22;11819;51.394;12.340;2023-09-08T06:06:33;18.40;91.60
23301;DHT22;11819;51.394;12.340;2023-09-08T06:08:59;18.50;91.70
23301;DHT22;11819;51.394;12.340;2023-09-08T06:11:25;18.50;91.70
23301;DHT22;11819;51.394;12.340;2023-09-08T06:13:51;18.50;91.70
23301;DHT22;11819;51.394;12.340;2023-09-08T06:16:19;18.60;91.80
23301;DHT22;11819;51.394;12.340;2023-09-08T06:18:46;18.60;91.40
23301;DHT22;11819;51.394;12.340;2023-09-08T06:21:16;18.70;91.20
23301;DHT22;11819;51.394;12.340;2023-09-08T06:23:41;18.70;91.10
23301;DHT22;11819;51.394;12.340;2023-09-08T06:26:07;18.80;90.90
23301;DHT22;11819;51.394;12.340;2023-09-08T06:30:25;18.90;90.50
23301;DHT22;11819;51.394;12.340;2023-09-08T06:32:51;18.90;90.90
23301;DHT22;11819;51.394;12.340;2023-09-08T06:35:18;19.00;90.80
23301;DHT22;11819;51.394;12.340;2023-09-08T06:37:44;19.10;90.80
23301;DHT22;11819;51.394;12.340;2023-09-08T06:40:10;19.10;90.70
23301;DHT22;11819;51.394;12.340;2023-09-08T06:42:36;19.20;90.80
23301;DHT22;11819;51.394;12.340;2023-09-08T06:45:15;19.30;90.90
23301;DHT22;11819;51.394;12.340;2023-09-08T06:47:41;19.30;90.80
23301;DHT22;11819;51.394;12.340;2023-09-08T06:50:07;19.40;90.80
23301;DHT22;11819;51.394;12.340;2023-09-08T06:52:33;19.40;90.80
23301;DHT22;11819;51.394;12.340;2023-09-08T06:54:58;19.40;91.20
23301;DHT22;11819;51.394;12.340;2023-09-08T06:57:24;19.50;90.80
23301;DHT22;11819;51.394;12.340;2023-09-08T06:59:50;19.50;90.70
23301;DHT22;11819;51.394;12.340;2023-09-08T07:02:16;19.60;90.60
23301;DHT22;11819;51.394;12.340;2023-09-08T07:04:42;19.70;90.40
23301;DHT22;11819;51.394;12.340;2023-09-08T07:07:08;19.70;90.30
23301;DHT22;11819;51.394;12.340;2023-09-08T07:09:37;19.70;90.30
23301;DHT22;11819;51.394;12.340;2023-09-08T07:12:04;19.80;89.50
23301;DHT22;11819;51.394;12.340;2023-09-08T07:14:31;19.80;89.40
23301;DHT22;11819;51.394;12.340;2023-09-08T07:16:56;19.90;89.50
23301;DHT22;11819;51.394;12.340;2023-09-08T07:19:22;19.90;89.30
23301;DHT22;11819;51.394;12.340;2023-09-08T07:21:48;19.90;89.10
23301;DHT22;11819;51.394;12.340;2023-09-08T07:24:14;20.00;89.10
23301;DHT22;11819;51.394;12.340;2023-09-08T07:26:40;20.00;89.00
23301;DHT22;11819;51.394;12.340;2023-09-08T07:29:05;20.10;89.00
23301;DHT22;11819;51.394;12.340;2023-09-08T07:31:31;20.10;88.60
23301;DHT22;11819;51.394;12.340;2023-09-08T07:33:57;20.20;88.70
23301;DHT22;11819;51.394;12.340;2023-09-08T07:36:23;20.20;88.60
23301;DHT22;11819;51.394;12.340;2023-09-08T07:38:49;20.20;88.60
23301;DHT22;11819;51.394;12.340;2023-09-08T07:41:15;20.20;88.30
23301;DHT22;11819;51.394;12.340;2023-09-08T07:43:40;20.30;88.30
23301;DHT22;11819;51.394;12.340;2023-09-08T07:46:09;20.30;88.30
23301;DHT22;11819;51.394;12.340;2023-09-08T07:48:34;20.30;88.10
23301;DHT22;11819;51.394;12.340;2023-09-08T07:51:00;20.40;88.40
23301;DHT22;11819;51.394;12.340;2023-09-08T07:53:26;20.40;88.40
23301;DHT22;11819;51.394;12.340;2023-09-08T07:55:52;20.40;88.50
23301;DHT22;11819;51.394;12.340;2023-09-08T07:58:18;20.50;88.50
23301;DHT22;11819;51.394;12.340;2023-09-08T08:00:44;20.50;88.30
23301;DHT22;11819;51.394;12.340;2023-09-08T08:03:10;20.60;88.20
23301;DHT22;11819;51.394;12.340;2023-09-08T08:05:35;20.60;88.00
23301;DHT22;11819;51.394;12.340;2023-09-08T08:08:01;20.60;87.80
23301;DHT22;11819;51.394;12.340;2023-09-08T08:10:27;20.70;87.00
23301;DHT22;11819;51.394;12.340;2023-09-08T08:12:53;20.70;86.20
23301;DHT22;11819;51.394;12.340;2023-09-08T08:15:20;20.80;86.00
23301;DHT22;11819;51.394;12.340;2023-09-08T08:17:48;20.90;86.20
23301;DHT22;11819;51.394;12.340;2023-09-08T08:20:14;20.90;86.50
23301;DHT22;11819;51.394;12.340;2023-09-08T08:22:44;20.90;86.80
23301;DHT22;11819;51.394;12.340;2023-09-08T08:25:11;20.90;86.80
23301;DHT22;11819;51.394;12.340;2023-09-08T08:27:39;21.00;86.70
23301;DHT22;11819;51.394;12.340;2023-09-08T08:30:05;21.00;86.20
23301;DHT22;11819;51.394;12.340;2023-09-08T08:32:31;21.00;85.80
23301;DHT22;11819;51.394;12.340;2023-09-08T08:34:56;21.10;85.90
23301;DHT22;11819;51.394;12.340;2023-09-08T08:37:22;21.10;85.40
23301;DHT22;11819;51.394;12.340;2023-09-08T08:39:48;21.20;85.20
23301;DHT22;11819;51.394;12.340;2023-09-08T08:42:14;21.30;85.30
23301;DHT22;11819;51.394;12.340;2023-09-08T08:44:40;21.30;85.30
23301;DHT22;11819;51.394;12.340;2023-09-08T08:47:07;21.40;85.00
23301;DHT22;11819;51.394;12.340;2023-09-08T08:49:33;21.50;85.10
23301;DHT22;11819;51.394;12.340;2023-09-08T08:52:00;21.50;85.50
23301;DHT22;11819;51.394;12.340;2023-09-08T08:54:34;21.60;85.70
23301;DHT22;11819;51.394;12.340;2023-09-08T08:57:03;21.60;85.20
23301;DHT22;11819;51.394;12.340;2023-09-08T08:59:30;21.70;84.70
23301;DHT22;11819;51.394;12.340;2023-09-08T09:01:57;21.70;83.80
23301;DHT22;11819;51.394;12.340;2023-09-08T09:04:23;21.80;83.10
23301;DHT22;11819;51.394;12.340;2023-09-08T09:06:49;21.90;83.10
23301;DHT22;11819;51.394;12.340;2023-09-08T09:09:16;22.00;82.80
23301;DHT22;11819;51.394;12.340;2023-09-08T09:11:42;22.00;82.80
23301;DHT22;11819;51.394;12.340;2023-09-08T09:14:08;22.00;82.60
23301;DHT22;11819;51.394;12.340;2023-09-08T09:16:39;22.10;82.00
23301;DHT22;11819;51.394;12.340;2023-09-08T09:19:05;22.20;82.10
23301;DHT22;11819;51.394;12.340;2023-09-08T09:21:45;22.20;83.50
23301;DHT22;11819;51.394;12.340;2023-09-08T09:27:06;22.20;82.10
23301;DHT22;11819;51.394;12.340;2023-09-08T09:29:33;22.30;82.00
23301;DHT22;11819;51.394;12.340;2023-09-08T09:32:06;22.40;82.20
23301;DHT22;11819;51.394;12.340;2023-09-08T09:34:34;22.40;81.80
23301;DHT22;11819;51.394;12.340;2023-09-08T09:37:00;22.50;80.60
23301;DHT22;11819;51.394;12.340;2023-09-08T09:39:26;22.60;79.50
23301;DHT22;11819;51.394;12.340;2023-09-08T09:41:56;22.60;79.80
23301;DHT22;11819;51.394;12.340;2023-09-08T09:44:23;22.70;79.50
23301;DHT22;11819;51.394;12.340;2023-09-08T09:46:52;22.70;79.10
23301;DHT22;11819;51.394;12.340;2023-09-08T09:49:17;22.80;78.70
23301;DHT22;11819;51.394;12.340;2023-09-08T09:51:45;22.80;78.20
23301;DHT22;11819;51.394;12.340;2023-09-08T09:54:12;22.90;77.90
23301;DHT22;11819;51.394;12.340;2023-09-08T09:56:39;23.00;77.80
23301;DHT22;11819;51.394;12.340;2023-09-08T09:59:10;23.00;77.10
23301;DHT22;11819;51.394;12.340;2023-09-08T10:01:36;23.10;77.40
23301;DHT22;11819;51.394;12.340;2023-09-08T10:04:03;23.20;77.10
23301;DHT22;11819;51.394;12.340;2023-09-08T10:06:34;23.20;75.00
23301;DHT22;11819;51.394;12.340;2023-09-08T10:09:01;23.30;74.90
23301;DHT22;11819;51.394;12.340;2023-09-08T10:11:34;23.40;75.70
23301;DHT22;11819;51.394;12.340;2023-09-08T10:14:00;23.40;75.00
23301;DHT22;11819;51.394;12.340;2023-09-08T10:18:54;23.50;73.70
23301;DHT22;11819;51.394;12.340;2023-09-08T10:21:26;23.50;72.40
23301;DHT22;11819;51.394;12.340;2023-09-08T10:24:21;23.60;72.70
23301;DHT22;11819;51.394;12.340;2023-09-08T10:27:04;23.60;71.00
23301;DHT22;11819;51.394;12.340;2023-09-08T10:29:33;23.70;70.70
23301;DHT22;11819;51.394;12.340;2023-09-08T10:31:59;23.80;70.50
23301;DHT22;11819;51.394;12.340;2023-09-08T10:34:26;23.80;71.30
23301;DHT22;11819;51.394;12.340;2023-09-08T10:36:53;23.90;71.70
23301;DHT22;11819;51.394;12.340;2023-09-08T10:39:35;23.90;69.20
23301;DHT22;11819;51.394;12.340;2023-09-08T10:44:55;24.10;68.80
23301;DHT22;11819;51.394;12.340;2023-09-08T10:47:26;24.10;68.60
23301;DHT22;11819;51.394;12.340;2023-09-08T10:49:56;24.20;68.30
23301;DHT22;11819;51.394;12.340;2023-09-08T10:52:24;24.20;67.60
23301;DHT22;11819;51.394;12.340;2023-09-08T10:54:54;24.30;66.30
23301;DHT22;11819;51.394;12.340;2023-09-08T10:57:22;24.40;65.10
23301;DHT22;11819;51.394;12.340;2023-09-08T10:59:59;24.40;66.80
23301;DHT22;11819;51.394;12.340;2023-09-08T11:02:37;24.50;67.10
23301;DHT22;11819;51.394;12.340;2023-09-08T11:05:08;24.50;67.10
23301;DHT22;11819;51.394;12.340;2023-09-08T11:07:38;24.60;65.40
23301;DHT22;11819;51.394;12.340;2023-09-08T11:10:05;24.60;65.00
23301;DHT22;11819;51.394;12.340;2023-09-08T11:12:31;24.70;63.00
23301;DHT22;11819;51.394;12.340;2023-09-08T11:15:01;24.70;63.00
23301;DHT22;11819;51.394;12.340;2023-09-08T11:17:30;24.80;63.60
23301;DHT22;11819;51.394;12.340;2023-09-08T11:19:56;24.80;62.00
23301;DHT22;11819;51.394;12.340;2023-09-08T11:22:24;24.90;62.10
23301;DHT22;11819;51.394;12.340;2023-09-08T11:24:51;25.00;62.00
23301;DHT22;11819;51.394;12.340;2023-09-08T11:27:17;25.00;62.70
23301;DHT22;11819;51.394;12.340;2023-09-08T11:29:44;25.10;62.10
23301;DHT22;11819;51.394;12.340;2023-09-08T11:32:10;25.10;61.30
23301;DHT22;11819;51.394;12.340;2023-09-08T11:34:36;25.20;61.30
23301;DHT22;11819;51.394;12.340;2023-09-08T11:37:14;25.20;62.10
23301;DHT22;11819;51.394;12.340;2023-09-08T11:39:42;25.30;62.80
23301;DHT22;11819;51.394;12.340;2023-09-08T11:42:10;25.30;61.80
23301;DHT22;11819;51.394;12.340;2023-09-08T11:44:37;25.40;62.30
23301;DHT22;11819;51.394;12.340;2023-09-08T11:47:03;25.50;60.90
23301;DHT22;11819;51.394;12.340;2023-09-08T11:49:36;25.60;60.00
23301;DHT22;11819;51.394;12.340;2023-09-08T11:52:03;25.70;58.40
23301;DHT22;11819;51.394;12.340;2023-09-08T11:54:30;25.70;58.50
23301;DHT22;11819;51.394;12.340;2023-09-08T11:56:59;25.80;57.50
23301;DHT22;11819;51.394;12.340;2023-09-08T11:59:27;25.90;58.00
23301;DHT22;11819;51.394;12.340;2023-09-08T12:01:53;25.90;56.90
23301;DHT22;11819;51.394;12.340;2023-09-08T12:04:19;26.00;57.80
23301;DHT22;11819;51.394;12.340;2023-09-08T12:06:47;26.10;57.80
23301;DHT22;11819;51.394;12.340;2023-09-08T12:09:13;26.10;57.90
23301;DHT22;11819;51.394;12.340;2023-09-08T12:11:39;26.10;56.40
23301;DHT22;11819;51.394;12.340;2023-09-08T12:14:12;26.20;56.30
23301;DHT22;11819;51.394;12.340;2023-09-08T12:16:38;26.30;56.90
23301;DHT22;11819;51.394;12.340;2023-09-08T12:19:04;26.30;56.50
23301;DHT22;11819;51.394;12.340;2023-09-08T12:21:32;26.40;56.00
23301;DHT22;11819;51.394;12.340;2023-09-08T12:23:58;26.50;55.00
23301;DHT22;11819;51.394;12.340;2023-09-08T12:26:27;26.60;55.80
23301;DHT22;11819;51.394;12.340;2023-09-08T12:28:52;26.60;56.30
23301;DHT22;11819;51.394;12.340;2023-09-08T12:31:18;26.80;56.20
23301;DHT22;11819;51.394;12.340;2023-09-08T12:33:44;26.90;55.90
23301;DHT22;11819;51.394;12.340;2023-09-08T12:36:18;27.00;55.40
23301;DHT22;11819;51.394;12.340;2023-09-08T12:38:47;27.10;56.30
23301;DHT22;11819;51.394;12.340;2023-09-08T12:41:13;27.30;55.30
23301;DHT22;11819;51.394;12.340;2023-09-08T12:43:39;27.40;54.70
23301;DHT22;11819;51.394;12.340;2023-09-08T12:46:05;27.50;54.00
23301;DHT22;11819;51.394;12.340;2023-09-08T12:48:30;27.70;53.70
23301;DHT22;11819;51.394;12.340;2023-09-08T12:50:56;27.80;53.90
23301;DHT22;11819;51.394;12.340;2023-09-08T12:53:21;28.00;53.50
23301;DHT22;11819;51.394;12.340;2023-09-08T12:55:48;28.30;52.50
23301;DHT22;11819;51.394;12.340;2023-09-08T12:58:15;28.60;53.50
23301;DHT22;11819;51.394;12.340;2023-09-08T13:00:42;29.00;51.10
23301;DHT22;11819;51.394;12.340;2023-09-08T13:03:07;29.30;50.60
23301;DHT22;11819;51.394;12.340;2023-09-08T13:05:33;29.70;48.80
23301;DHT22;11819;51.394;12.340;2023-09-08T13:07:59;30.00;49.30
23301;DHT22;11819;51.394;12.340;2023-09-08T13:10:25;30.30;49.70
23301;DHT22;11819;51.394;12.340;2023-09-08T13:12:50;30.60;49.40
23301;DHT22;11819;51.394;12.340;2023-09-08T13:15:16;30.90;49.70
23301;DHT22;11819;51.394;12.340;2023-09-08T13:17:42;31.20;47.20
23301;DHT22;11819;51.394;12.340;2023-09-08T13:20:08;31.40;47.90
23301;DHT22;11819;51.394;12.340;2023-09-08T13:22:34;31.50;47.30
23301;DHT22;11819;51.394;12.340;2023-09-08T13:25:00;31.70;48.00
23301;DHT22;11819;51.394;12.340;2023-09-08T13:27:25;31.90;48.20
23301;DHT22;11819;51.394;12.340;2023-09-08T13:29:53;32.20;48.20
23301;DHT22;11819;51.394;12.340;2023-09-08T13:32:19;32.40;46.90
23301;DHT22;11819;51.394;12.340;2023-09-08T13:34:45;32.50;45.40
23301;DHT22;11819;51.394;12.340;2023-09-08T13:37:13;32.70;45.50
23301;DHT22;11819;51.394;12.340;2023-09-08T13:39:38;32.80;46.30
23301;DHT22;11819;51.394;12.340;2023-09-08T13:42:04;33.00;46.30
23301;DHT22;11819;51.394;12.340;2023-09-08T13:44:30;33.10;46.30
23301;DHT22;11819;51.394;12.340;2023-09-08T13:46:56;33.30;45.90
23301;DHT22;11819;51.394;12.340;2023-09-08T13:49:22;33.50;46.00
23301;DHT22;11819;51.394;12.340;2023-09-08T13:51:48;33.70;46.00
23301;DHT22;11819;51.394;12.340;2023-09-08T13:54:16;33.80;46.70
23301;DHT22;11819;51.394;12.340;2023-09-08T13:56:42;34.00;45.90
23301;DHT22;11819;51.394;12.340;2023-09-08T13:59:09;34.20;45.70
23301;DHT22;11819;51.394;12.340;2023-09-08T14:01:35;34.40;45.30
23301;DHT22;11819;51.394;12.340;2023-09-08T14:04:02;34.60;43.70
23301;DHT22;11819;51.394;12.340;2023-09-08T14:06:28;34.70;43.40
23301;DHT22;11819;51.394;12.340;2023-09-08T14:08:54;34.80;43.80
23301;DHT22;11819;51.394;12.340;2023-09-08T14:11:22;35.00;43.70
23301;DHT22;11819;51.394;12.340;2023-09-08T14:13:48;35.10;40.70
23301;DHT22;11819;51.394;12.340;2023-09-08T14:16:14;35.20;41.80
23301;DHT22;11819;51.394;12.340;2023-09-08T14:18:39;35.30;42.80
23301;DHT22;11819;51.394;12.340;2023-09-08T14:21:06;35.40;42.90
23301;DHT22;11819;51.394;12.340;2023-09-08T14:23:32;35.50;42.20
23301;DHT22;11819;51.394;12.340;2023-09-08T14:26:00;35.60;40.40
23301;DHT22;11819;51.394;12.340;2023-09-08T14:28:26;35.60;40.80
23301;DHT22;11819;51.394;12.340;2023-09-08T14:30:53;35.70;41.50
23301;DHT22;11819;51.394;12.340;2023-09-08T14:33:19;35.90;41.90
23301;DHT22;11819;51.394;12.340;2023-09-08T14:35:45;36.00;41.90
23301;DHT22;11819;51.394;12.340;2023-09-08T14:38:22;36.10;41.20
23301;DHT22;11819;51.394;12.340;2023-09-08T14:40:59;36.20;41.70
23301;DHT22;11819;51.394;12.340;2023-09-08T14:43:25;36.30;42.10
23301;DHT22;11819;51.394;12.340;2023-09-08T14:45:52;36.30;41.30
23301;DHT22;11819;51.394;12.340;2023-09-08T14:48:18;36.30;41.30
23301;DHT22;11819;51.394;12.340;2023-09-08T14:50:43;36.30;41.70
23301;DHT22;11819;51.394;12.340;2023-09-08T14:53:10;36.40;41.80
23301;DHT22;11819;51.394;12.340;2023-09-08T14:55:36;36.40;39.30
23301;DHT22;11819;51.394;12.340;2023-09-08T14:58:01;36.40;40.10
23301;DHT22;11819;51.394;12.340;2023-09-08T15:00:27;36.40;40.10
23301;DHT22;11819;51.394;12.340;2023-09-08T15:02:53;36.40;40.20
23301;DHT22;11819;51.394;12.340;2023-09-08T15:05:19;36.40;41.00
23301;DHT22;11819;51.394;12.340;2023-09-08T15:07:44;36.40;40.40
23301;DHT22;11819;51.394;12.340;2023-09-08T15:10:10;36.40;40.70
23301;DHT22;11819;51.394;12.340;2023-09-08T15:12:36;36.40;39.20
23301;DHT22;11819;51.394;12.340;2023-09-08T15:15:02;36.40;40.00
23301;DHT22;11819;51.394;12.340;2023-09-08T15:17:29;36.40;40.10
23301;DHT22;11819;51.394;12.340;2023-09-08T15:19:55;36.40;40.50
23301;DHT22;11819;51.394;12.340;2023-09-08T15:22:20;36.40;39.20
23301;DHT22;11819;51.394;12.340;2023-09-08T15:24:46;36.30;40.30